createdAt,value
2019-03-31T00:00:08.400Z,91.20
2019-03-31T00:02:37.820Z,91.30
2019-03-31T00:05:07.115Z,91.50
2019-03-31T00:07:36.618Z,91.50
2019-03-31T00:10:07.600Z,91.60
2019-03-31T00:12:39.286Z,91.70
2019-03-31T00:15:09.147Z,91.90
2019-03-31T00:17:38.443Z,92.00
2019-03-31T00:20:08.102Z,92.30
2019-03-31T00:22:39.006Z,92.40
2019-03-31T00:25:10.016Z,92.40
2019-03-31T00:27:39.241Z,92.60
2019-03-31T00:30:08.812Z,92.70
2019-03-31T00:32:38.066Z,92.70
2019-03-31T00:35:07.407Z,92.70
2019-03-31T00:37:36.631Z,92.80
2019-03-31T00:40:07.098Z,92.80
2019-03-31T00:42:36.328Z,92.90
2019-03-31T00:45:07.284Z,92.70
2019-03-31T00:47:36.992Z,92.80
2019-03-31T00:50:07.257Z,92.70
2019-03-31T00:52:36.484Z,92.60
2019-03-31T00:55:06.156Z,92.50
2019-03-31T00:57:36.157Z,92.40
2019-03-31T01:00:09.012Z,92.50
2019-03-31T01:02:38.423Z,92.50
2019-03-31T01:05:08.102Z,92.40
2019-03-31T01:07:37.437Z,92.50
2019-03-31T01:10:07.893Z,92.50
2019-03-31T01:12:37.607Z,92.50
2019-03-31T01:15:10.795Z,92.50
2019-03-31T01:17:40.117Z,92.80
2019-03-31T01:20:09.619Z,92.70
2019-03-31T01:22:38.933Z,92.80
2019-03-31T01:25:08.725Z,92.90
2019-03-31T01:27:38.201Z,92.90
2019-03-31T01:30:09.605Z,93.10
2019-03-31T01:32:39.289Z,93.00
2019-03-31T01:35:10.231Z,93.00
2019-03-31T01:37:39.537Z,93.20
2019-03-31T01:40:09.101Z,93.30
2019-03-31T01:42:38.337Z,93.30
2019-03-31T01:45:08.482Z,93.60
2019-03-31T01:47:38.047Z,93.60
2019-03-31T01:50:10.065Z,93.60
2019-03-31T01:52:39.303Z,93.80
2019-03-31T01:55:09.187Z,94.00
2019-03-31T01:57:38.483Z,94.00
2019-03-31T02:00:29.107Z,94.30
2019-03-31T02:02:58.415Z,94.60
2019-03-31T02:05:27.729Z,94.70
2019-03-31T02:07:57.004Z,94.90
2019-03-31T02:10:26.316Z,94.90
2019-03-31T02:12:55.727Z,95.10
2019-03-31T02:15:25.149Z,95.20
2019-03-31T02:17:54.393Z,95.30
2019-03-31T02:20:24.564Z,95.20
2019-03-31T02:22:53.793Z,95.20
2019-03-31T02:25:23.092Z,95.20
2019-03-31T02:27:52.339Z,95.20
2019-03-31T02:30:21.626Z,95.20
2019-03-31T02:32:50.854Z,95.30
2019-03-31T02:35:20.103Z,95.30
2019-03-31T02:37:49.323Z,95.30
2019-03-31T02:40:18.546Z,95.40
2019-03-31T02:42:47.787Z,95.40
2019-03-31T02:45:17.026Z,95.60
2019-03-31T02:47:46.266Z,95.30
2019-03-31T02:50:30.215Z,95.30
2019-03-31T02:52:59.535Z,95.30
2019-03-31T02:55:28.766Z,95.40
2019-03-31T02:57:58.343Z,95.60
2019-03-31T03:00:28.003Z,95.60
2019-03-31T03:02:58.317Z,95.90
2019-03-31T03:05:30.082Z,96.00
2019-03-31T03:08:01.277Z,96.40
2019-03-31T03:10:32.838Z,96.20
2019-03-31T03:13:03.613Z,96.30
2019-03-31T03:15:35.917Z,96.40
2019-03-31T03:18:05.175Z,96.50
2019-03-31T03:20:34.406Z,96.40
2019-03-31T03:23:03.656Z,96.70
2019-03-31T03:25:32.900Z,96.80
2019-03-31T03:28:02.131Z,96.80
2019-03-31T03:30:31.431Z,96.80
2019-03-31T03:33:14.592Z,97.00
2019-03-31T03:35:31.821Z,97.30
2019-03-31T03:38:01.056Z,96.10
2019-03-31T03:40:30.293Z,95.20
2019-03-31T03:42:59.555Z,94.90
2019-03-31T03:45:28.861Z,95.20
2019-03-31T03:47:58.158Z,95.20
2019-03-31T03:50:27.483Z,95.30
2019-03-31T03:52:56.700Z,95.40
2019-03-31T03:55:25.958Z,95.30
2019-03-31T03:57:55.250Z,95.00
2019-03-31T04:00:24.698Z,94.80
2019-03-31T04:02:53.930Z,95.00
2019-03-31T04:05:23.179Z,94.90
2019-03-31T04:07:52.400Z,95.20
2019-03-31T04:10:44.371Z,95.40
2019-03-31T04:13:13.837Z,95.70
2019-03-31T04:15:43.106Z,95.60
2019-03-31T04:18:12.393Z,96.00
2019-03-31T04:20:41.660Z,95.50
2019-03-31T04:23:10.947Z,95.40
2019-03-31T04:25:40.226Z,95.50
2019-03-31T04:28:09.510Z,95.70
2019-03-31T04:30:38.741Z,95.70
2019-03-31T04:33:07.978Z,96.00
2019-03-31T04:35:37.275Z,96.00
2019-03-31T04:38:06.504Z,96.30
2019-03-31T04:40:35.771Z,96.70
2019-03-31T04:43:05.131Z,96.90
2019-03-31T04:45:34.378Z,97.10
2019-03-31T04:48:03.716Z,97.50
2019-03-31T04:50:32.942Z,98.00
2019-03-31T04:53:02.216Z,97.60
2019-03-31T04:55:31.499Z,97.80
2019-03-31T04:58:00.736Z,98.10
2019-03-31T05:00:29.979Z,98.40
2019-03-31T05:02:59.212Z,98.40
2019-03-31T05:05:28.442Z,98.40
2019-03-31T05:07:57.659Z,98.50
2019-03-31T05:10:26.915Z,98.40
2019-03-31T05:12:56.140Z,98.80
2019-03-31T05:15:25.372Z,98.50
2019-03-31T05:17:54.604Z,98.40
2019-03-31T05:20:24.769Z,98.40
2019-03-31T05:22:54.024Z,98.20
2019-03-31T05:25:23.423Z,98.10
2019-03-31T05:27:52.668Z,98.10
2019-03-31T05:30:21.894Z,97.90
2019-03-31T05:32:51.146Z,97.90
2019-03-31T05:35:20.453Z,97.70
2019-03-31T05:37:51.038Z,97.70
2019-03-31T05:40:20.800Z,97.50
2019-03-31T05:42:50.035Z,97.50
2019-03-31T05:45:19.263Z,97.50
2019-03-31T05:47:48.489Z,97.90
2019-03-31T05:50:17.727Z,97.60
2019-03-31T05:52:46.954Z,97.60
2019-03-31T05:55:18.769Z,97.60
2019-03-31T05:57:47.160Z,97.30
2019-03-31T06:00:19.587Z,97.30
2019-03-31T06:02:48.832Z,97.20
2019-03-31T06:05:18.103Z,97.10
2019-03-31T06:07:47.349Z,97.10
2019-03-31T06:10:16.590Z,97.10
2019-03-31T06:12:45.847Z,97.00
2019-03-31T06:15:15.090Z,97.00
2019-03-31T06:17:44.329Z,96.90
2019-03-31T06:20:13.693Z,96.80
2019-03-31T06:22:42.927Z,96.80
2019-03-31T06:25:12.244Z,96.70
2019-03-31T06:27:41.571Z,97.10
2019-03-31T06:30:10.928Z,96.70
2019-03-31T06:32:40.196Z,96.70
2019-03-31T06:35:09.481Z,96.70
2019-03-31T06:37:38.713Z,96.70
2019-03-31T06:40:08.026Z,96.50
2019-03-31T06:42:37.248Z,96.40
2019-03-31T06:45:07.339Z,96.40
2019-03-31T06:47:36.552Z,96.20
2019-03-31T06:50:08.316Z,96.40
2019-03-31T06:52:37.547Z,96.30
2019-03-31T06:55:08.541Z,96.10
2019-03-31T06:57:37.808Z,96.00
2019-03-31T07:00:07.644Z,95.90
2019-03-31T07:02:36.888Z,96.00
2019-03-31T07:05:07.589Z,95.70
2019-03-31T07:07:36.817Z,95.40
2019-03-31T07:10:07.137Z,95.50
2019-03-31T07:12:36.716Z,95.70
2019-03-31T07:15:08.023Z,95.60
2019-03-31T07:17:37.316Z,95.60
2019-03-31T07:20:09.048Z,95.60
2019-03-31T07:22:38.452Z,95.50
2019-03-31T07:25:10.292Z,95.40
2019-03-31T07:27:39.921Z,95.50
2019-03-31T07:30:12.217Z,95.60
2019-03-31T07:32:41.572Z,95.80
2019-03-31T07:35:18.351Z,95.90
2019-03-31T07:37:47.382Z,95.90
2019-03-31T07:40:15.928Z,95.30
2019-03-31T07:42:45.634Z,94.90
2019-03-31T07:45:16.426Z,94.50
2019-03-31T07:47:45.721Z,94.10
2019-03-31T07:50:17.104Z,93.80
2019-03-31T07:52:46.332Z,93.40
2019-03-31T07:55:17.380Z,92.80
2019-03-31T07:57:46.830Z,92.30
2019-03-31T08:00:21.620Z,91.70
2019-03-31T08:02:50.880Z,91.40
2019-03-31T08:05:32.316Z,91.00
2019-03-31T08:07:51.213Z,90.60
2019-03-31T08:10:21.783Z,90.50
2019-03-31T08:12:50.993Z,90.40
2019-03-31T08:15:20.300Z,90.40
2019-03-31T08:17:49.528Z,89.60
2019-03-31T08:20:19.429Z,87.50
2019-03-31T08:22:48.682Z,86.10
2019-03-31T08:25:18.452Z,85.10
2019-03-31T08:27:47.685Z,84.20
2019-03-31T08:30:18.768Z,83.00
2019-03-31T08:32:48.017Z,82.30
2019-03-31T08:35:18.868Z,81.00
2019-03-31T08:37:48.126Z,80.50
2019-03-31T08:40:17.516Z,78.50
2019-03-31T08:42:46.760Z,76.80
2019-03-31T08:45:16.936Z,75.80
2019-03-31T08:47:46.184Z,75.00
2019-03-31T08:50:17.248Z,74.40
2019-03-31T08:52:46.486Z,74.00
2019-03-31T08:55:15.876Z,71.40
2019-03-31T08:57:45.107Z,70.70
2019-03-31T09:00:33.326Z,69.80
2019-03-31T09:03:02.560Z,68.90
2019-03-31T09:05:31.792Z,67.40
2019-03-31T09:08:01.046Z,66.20
2019-03-31T09:10:30.298Z,64.80
2019-03-31T09:12:59.608Z,63.80
2019-03-31T09:15:28.859Z,62.80
2019-03-31T09:17:58.082Z,61.90
2019-03-31T09:20:27.415Z,61.20
2019-03-31T09:22:56.672Z,60.50
2019-03-31T09:25:26.006Z,59.80
2019-03-31T09:27:55.227Z,59.20
2019-03-31T09:30:25.428Z,58.60
2019-03-31T09:32:54.651Z,57.90
2019-03-31T09:35:24.836Z,57.60
2019-03-31T09:37:54.079Z,56.70
2019-03-31T09:40:23.382Z,56.00
2019-03-31T09:42:52.619Z,55.60
2019-03-31T09:45:21.908Z,55.00
2019-03-31T09:47:51.174Z,54.40
2019-03-31T09:50:20.897Z,53.60
2019-03-31T09:52:50.212Z,52.80
2019-03-31T09:55:22.845Z,52.50
2019-03-31T09:57:50.388Z,52.00
2019-03-31T10:00:51.643Z,51.50
2019-03-31T10:03:22.020Z,51.20
2019-03-31T10:05:51.285Z,51.20
2019-03-31T10:08:22.186Z,51.40
2019-03-31T10:10:51.576Z,50.30
2019-03-31T10:13:20.869Z,50.30
2019-03-31T10:15:50.166Z,49.80
2019-03-31T10:18:19.616Z,49.00
2019-03-31T10:20:48.905Z,48.40
2019-03-31T10:23:18.163Z,48.00
2019-03-31T10:25:47.406Z,47.60
2019-03-31T10:28:16.677Z,47.60
2019-03-31T10:30:45.925Z,47.20
2019-03-31T10:33:15.195Z,46.90
2019-03-31T10:35:44.553Z,46.60
2019-03-31T10:38:13.804Z,45.90
2019-03-31T10:40:43.055Z,45.30
2019-03-31T10:43:12.273Z,44.70
2019-03-31T10:45:41.537Z,44.70
2019-03-31T10:48:20.189Z,45.10
2019-03-31T10:50:41.739Z,44.70
2019-03-31T10:53:11.002Z,43.30
2019-03-31T10:55:40.237Z,43.00
2019-03-31T10:58:09.476Z,43.20
2019-03-31T11:00:38.909Z,43.40
2019-03-31T11:03:08.685Z,42.40
2019-03-31T11:05:37.980Z,42.40
2019-03-31T11:08:07.304Z,42.10
2019-03-31T11:10:36.813Z,42.00
2019-03-31T11:13:06.198Z,41.20
2019-03-31T11:15:35.448Z,41.10
2019-03-31T11:18:04.729Z,40.70
2019-03-31T11:20:33.960Z,40.80
2019-03-31T11:23:10.691Z,40.80
2019-03-31T11:25:39.907Z,40.70
2019-03-31T11:28:09.160Z,40.00
2019-03-31T11:30:38.413Z,39.00
2019-03-31T11:33:07.946Z,38.60
2019-03-31T11:35:37.344Z,38.30
2019-03-31T11:38:06.603Z,37.30
2019-03-31T11:40:35.842Z,37.40
2019-03-31T11:43:05.133Z,37.00
2019-03-31T11:45:34.604Z,36.80
2019-03-31T11:48:04.055Z,37.20
2019-03-31T11:50:33.344Z,37.90
2019-03-31T11:53:02.576Z,38.00
2019-03-31T11:55:31.832Z,37.40
2019-03-31T11:58:01.154Z,36.20
2019-03-31T12:00:32.118Z,35.00
2019-03-31T12:03:01.341Z,33.90
2019-03-31T12:05:30.770Z,33.20
2019-03-31T12:08:00.096Z,33.20
2019-03-31T12:10:29.381Z,33.30
2019-03-31T12:12:58.824Z,32.70
2019-03-31T12:15:28.091Z,31.90
2019-03-31T12:17:57.330Z,31.70
2019-03-31T12:20:26.569Z,31.50
2019-03-31T12:22:55.901Z,31.70
2019-03-31T12:25:25.131Z,31.00
2019-03-31T12:27:54.410Z,31.10
2019-03-31T12:30:27.588Z,31.10
2019-03-31T12:32:57.937Z,31.20
2019-03-31T12:35:27.269Z,31.00
2019-03-31T12:37:56.775Z,31.40
2019-03-31T12:40:34.270Z,31.00
2019-03-31T12:43:03.575Z,30.90
2019-03-31T12:45:32.892Z,30.70
2019-03-31T12:48:02.125Z,30.10
2019-03-31T12:50:31.536Z,30.20
2019-03-31T12:53:00.868Z,30.90
2019-03-31T12:55:30.186Z,30.50
2019-03-31T12:57:59.496Z,30.60
2019-03-31T13:00:28.832Z,30.60
2019-03-31T13:02:58.288Z,30.40
2019-03-31T13:05:27.622Z,30.60
2019-03-31T13:07:57.117Z,30.70
2019-03-31T13:10:26.535Z,30.50
2019-03-31T13:12:55.867Z,30.50
2019-03-31T13:15:25.176Z,30.50
2019-03-31T13:17:54.506Z,30.20
2019-03-31T13:20:23.756Z,31.00
2019-03-31T13:22:53.058Z,30.60
2019-03-31T13:25:22.286Z,30.60
2019-03-31T13:27:51.529Z,30.70
2019-03-31T13:30:22.041Z,31.00
2019-03-31T13:32:51.565Z,31.00
2019-03-31T13:35:20.816Z,32.30
2019-03-31T13:37:50.056Z,33.10
2019-03-31T13:40:19.451Z,32.90
2019-03-31T13:42:48.745Z,33.20
2019-03-31T13:45:18.178Z,32.90
2019-03-31T13:47:47.414Z,32.80
2019-03-31T13:50:16.894Z,32.90
2019-03-31T13:52:46.123Z,32.60
2019-03-31T13:55:15.591Z,34.80
2019-03-31T13:57:45.267Z,35.10
2019-03-31T14:00:25.413Z,35.10
2019-03-31T14:02:49.806Z,34.70
2019-03-31T14:05:19.076Z,34.40
2019-03-31T14:07:48.402Z,34.20
2019-03-31T14:10:17.741Z,34.40
2019-03-31T14:12:46.996Z,33.90
2019-03-31T14:15:19.500Z,33.90
2019-03-31T14:17:47.354Z,33.70
2019-03-31T14:20:16.648Z,33.90
2019-03-31T14:22:45.932Z,33.70
2019-03-31T14:25:15.181Z,33.70
2019-03-31T14:27:44.504Z,34.00
2019-03-31T14:30:14.313Z,33.80
2019-03-31T14:32:43.606Z,34.40
2019-03-31T14:35:13.061Z,34.50
2019-03-31T14:37:42.308Z,34.50
2019-03-31T14:40:11.797Z,34.30
2019-03-31T14:42:41.143Z,34.10
2019-03-31T14:45:13.524Z,34.40
2019-03-31T14:47:42.756Z,33.90
2019-03-31T14:50:15.092Z,33.60
2019-03-31T14:52:44.328Z,33.60
2019-03-31T14:55:13.576Z,32.80
2019-03-31T14:57:42.817Z,32.90
2019-03-31T15:00:14.884Z,33.00
2019-03-31T15:02:43.242Z,32.60
2019-03-31T15:05:12.667Z,31.70
2019-03-31T15:07:41.893Z,32.70
2019-03-31T15:10:11.145Z,32.90
2019-03-31T15:12:40.380Z,33.40
2019-03-31T15:15:09.855Z,33.40
2019-03-31T15:17:39.089Z,33.70
2019-03-31T15:20:08.899Z,33.80
2019-03-31T15:22:38.140Z,34.10
2019-03-31T15:25:07.527Z,34.40
2019-03-31T15:27:36.821Z,34.70
2019-03-31T15:30:06.731Z,34.80
2019-03-31T15:32:35.983Z,34.90
2019-03-31T15:35:06.567Z,34.60
2019-03-31T15:37:36.191Z,34.50
2019-03-31T15:40:07.061Z,34.50
2019-03-31T15:42:36.354Z,34.50
2019-03-31T15:45:07.331Z,34.50
2019-03-31T15:47:36.775Z,34.70
2019-03-31T15:50:06.913Z,35.10
2019-03-31T15:52:36.161Z,34.50
2019-03-31T15:55:08.154Z,33.80
2019-03-31T15:57:37.790Z,33.10
2019-03-31T16:00:08.325Z,32.30
2019-03-31T16:02:37.631Z,31.00
2019-03-31T16:05:08.502Z,28.20
2019-03-31T16:07:37.893Z,27.10
2019-03-31T16:10:07.596Z,26.80
2019-03-31T16:12:36.840Z,27.80
2019-03-31T16:15:06.618Z,28.60
2019-03-31T16:17:35.865Z,29.20
2019-03-31T16:20:06.348Z,28.60
2019-03-31T16:22:36.626Z,29.10
2019-03-31T16:25:08.566Z,30.40
2019-03-31T16:27:37.808Z,31.80
2019-03-31T16:30:07.872Z,33.50
2019-03-31T16:32:37.124Z,34.30
2019-03-31T16:35:06.631Z,35.30
2019-03-31T16:37:35.959Z,36.60
2019-03-31T16:40:08.116Z,38.90
2019-03-31T16:42:37.366Z,39.60
2019-03-31T16:45:07.448Z,39.40
2019-03-31T16:47:36.682Z,40.00
2019-03-31T16:50:06.973Z,40.20
2019-03-31T16:52:36.306Z,40.00
2019-03-31T16:55:05.867Z,40.10
2019-03-31T16:57:35.111Z,40.20
2019-03-31T17:00:06.300Z,40.30
2019-03-31T17:02:35.560Z,40.90
2019-03-31T17:05:20.659Z,41.40
2019-03-31T17:07:38.586Z,42.20
2019-03-31T17:10:08.681Z,43.10
2019-03-31T17:12:38.052Z,43.60
2019-03-31T17:15:08.412Z,44.60
2019-03-31T17:17:37.752Z,46.40
2019-03-31T17:20:07.262Z,46.50
2019-03-31T17:22:36.529Z,47.00
2019-03-31T17:25:06.344Z,47.40
2019-03-31T17:27:35.780Z,47.40
2019-03-31T17:30:06.280Z,47.70
2019-03-31T17:32:35.546Z,47.90
2019-03-31T17:35:05.528Z,48.90
2019-03-31T17:37:34.791Z,49.70
2019-03-31T17:40:07.150Z,50.10
2019-03-31T17:42:36.527Z,50.20
2019-03-31T17:45:07.241Z,51.10
2019-03-31T17:47:36.746Z,52.00
2019-03-31T17:50:07.097Z,52.40
2019-03-31T17:52:36.422Z,52.60
2019-03-31T17:55:06.489Z,52.90
2019-03-31T17:57:35.753Z,53.40
2019-03-31T18:00:09.884Z,53.80
2019-03-31T18:02:39.124Z,54.30
2019-03-31T18:05:09.031Z,54.40
2019-03-31T18:07:38.786Z,54.80
2019-03-31T18:10:20.200Z,55.20
2019-03-31T18:12:39.414Z,55.80
2019-03-31T18:15:09.006Z,55.00
2019-03-31T18:17:38.271Z,55.50
2019-03-31T18:20:07.581Z,56.00
2019-03-31T18:22:36.826Z,56.00
2019-03-31T18:25:07.519Z,56.10
2019-03-31T18:27:36.769Z,56.30
2019-03-31T18:30:06.954Z,56.90
2019-03-31T18:32:39.195Z,57.10
2019-03-31T18:35:08.583Z,57.40
2019-03-31T18:37:37.857Z,57.50
2019-03-31T18:40:08.649Z,57.70
2019-03-31T18:42:37.938Z,58.10
2019-03-31T18:45:07.985Z,58.30
2019-03-31T18:47:37.559Z,58.70
2019-03-31T18:50:07.361Z,58.70
2019-03-31T18:52:36.696Z,59.10
2019-03-31T18:55:24.304Z,59.30
2019-03-31T18:58:04.461Z,59.70
2019-03-31T19:00:35.435Z,60.30
2019-03-31T19:03:18.401Z,60.60
2019-03-31T19:05:54.966Z,61.10
2019-03-31T19:08:26.121Z,61.60
2019-03-31T19:11:15.009Z,62.20
2019-03-31T19:13:55.327Z,62.70
2019-03-31T19:16:37.555Z,63.50
2019-03-31T19:19:17.626Z,63.90
2019-03-31T19:22:03.009Z,64.30
2019-03-31T19:24:36.517Z,64.60
2019-03-31T19:27:09.887Z,65.00
2019-03-31T19:29:46.753Z,65.30
2019-03-31T19:32:17.642Z,65.70
2019-03-31T19:35:04.950Z,66.60
2019-03-31T19:37:44.708Z,66.30
2019-03-31T19:40:32.038Z,66.60
2019-03-31T19:43:02.992Z,67.00
2019-03-31T19:45:37.088Z,67.40
2019-03-31T19:48:10.774Z,67.80
2019-03-31T19:50:57.909Z,68.30
2019-03-31T19:53:48.199Z,68.80
2019-03-31T19:56:28.225Z,69.30
2019-03-31T19:58:59.121Z,69.70
2019-03-31T20:01:32.715Z,70.30
2019-03-31T20:04:04.722Z,70.80
2019-03-31T20:06:35.693Z,71.20
2019-03-31T20:09:09.151Z,71.60
2019-03-31T20:11:49.043Z,72.20
2019-03-31T20:14:36.228Z,72.70
2019-03-31T20:17:07.176Z,73.10
2019-03-31T20:19:44.065Z,73.40
2019-03-31T20:22:15.228Z,73.90
2019-03-31T20:25:02.222Z,74.40
2019-03-31T20:27:36.077Z,74.70
2019-03-31T20:30:11.521Z,75.10
2019-03-31T20:32:45.638Z,75.20
2019-03-31T20:35:16.621Z,75.50
2019-03-31T20:37:53.231Z,75.20
2019-03-31T20:40:24.193Z,75.10
2019-03-31T20:43:17.138Z,75.20
2019-03-31T20:45:46.391Z,76.40
2019-03-31T20:48:15.637Z,77.00
2019-03-31T20:50:44.861Z,76.80
2019-03-31T20:53:15.638Z,76.70
2019-03-31T20:55:44.871Z,76.60
2019-03-31T20:58:14.129Z,77.00
2019-03-31T21:00:43.373Z,78.10
2019-03-31T21:03:12.629Z,77.60
2019-03-31T21:05:43.270Z,78.50
2019-03-31T21:08:12.507Z,77.70
2019-03-31T21:10:41.756Z,77.60
2019-03-31T21:13:11.028Z,77.50
2019-03-31T21:15:40.272Z,76.90
2019-03-31T21:18:09.524Z,77.10
2019-03-31T21:20:38.792Z,77.30
2019-03-31T21:23:08.063Z,77.70
2019-03-31T21:25:37.376Z,77.60
2019-03-31T21:28:06.617Z,77.90
2019-03-31T21:30:36.939Z,78.30
2019-03-31T21:33:06.328Z,79.00
2019-03-31T21:35:35.928Z,78.30
2019-03-31T21:38:05.227Z,78.30
2019-03-31T21:40:34.504Z,78.50
2019-03-31T21:43:03.882Z,78.00
2019-03-31T21:45:33.169Z,78.20
2019-03-31T21:48:02.433Z,78.80
2019-03-31T21:50:32.930Z,78.80
2019-03-31T21:53:02.247Z,79.10
2019-03-31T21:55:31.594Z,79.60
2019-03-31T21:58:01.434Z,80.10
2019-03-31T22:00:50.438Z,80.50
2019-03-31T22:03:19.923Z,80.60
2019-03-31T22:05:49.424Z,81.20
2019-03-31T22:08:18.664Z,81.60
2019-03-31T22:10:48.470Z,81.50
2019-03-31T22:13:17.721Z,81.90
2019-03-31T22:15:46.963Z,82.00
2019-03-31T22:18:16.241Z,82.60
2019-03-31T22:20:47.339Z,83.10
2019-03-31T22:23:18.758Z,83.70
2019-03-31T22:25:48.034Z,84.00
2019-03-31T22:28:17.295Z,84.70
2019-03-31T22:30:46.513Z,84.90
2019-03-31T22:33:15.762Z,85.40
2019-03-31T22:35:46.655Z,86.00
2019-03-31T22:38:15.885Z,86.20
2019-03-31T22:40:45.125Z,86.60
2019-03-31T22:43:14.422Z,87.20
2019-03-31T22:45:43.681Z,88.00
2019-03-31T22:48:12.933Z,88.00
2019-03-31T22:50:42.161Z,89.00
2019-03-31T22:53:11.395Z,89.40
2019-03-31T22:55:40.660Z,89.70
2019-03-31T22:58:09.903Z,90.10
2019-03-31T23:00:39.172Z,90.20
2019-03-31T23:03:08.416Z,90.30
2019-03-31T23:05:37.677Z,90.50
2019-03-31T23:08:06.934Z,90.60
2019-03-31T23:10:36.494Z,90.70
2019-03-31T23:13:05.729Z,90.80
2019-03-31T23:15:35.131Z,90.90
2019-03-31T23:18:04.397Z,91.00
2019-03-31T23:20:34.025Z,91.00
2019-03-31T23:23:03.337Z,91.30
2019-03-31T23:25:32.588Z,91.40
2019-03-31T23:28:01.863Z,91.80
2019-03-31T23:30:31.092Z,92.00
2019-03-31T23:33:00.327Z,92.00
2019-03-31T23:35:29.596Z,92.30
2019-03-31T23:37:58.855Z,92.40
2019-03-31T23:40:28.094Z,92.60
2019-03-31T23:42:57.339Z,92.70
2019-03-31T23:45:26.593Z,92.90
2019-03-31T23:47:55.834Z,92.90
2019-03-31T23:50:25.863Z,93.10
2019-03-31T23:52:55.113Z,93.30
2019-03-31T23:55:24.367Z,93.60
2019-03-31T23:57:53.597Z,93.80
